首页
METAR-TAF:

METAR-TAF

机场 :

日内瓦国际机场

日内瓦, 瑞士

纬度: 46-15N, 经度: 006-08E, 海拔: 420米

当前天气观测

该预报发布于22分钟前的10:20 UTC
风速3节,风向多变
温度 8°C
湿度 71%
气压 1019 hPa
能见度10公里或以上
少量云层高于4000英尺

METAR: LSGG 081020Z VRB03KT 9999 FEW040 08/03 Q1019 NOSIG

时间: 11:42 (10:42 UTC)

预报

该预报发布于2小时和17分钟前的08:25 UTC
预报有效从08日的 09点(UTC)到 09日的 15点(UTC)
风速3节,风向多变
能见度10公里或以上
少量云层高于4000英尺
成为
从 08日的 11点(UTC)到 08日的 14点(UTC)
风速12节,风向西南
短暂存在
从 08日的 17点(UTC)到 08日的 21点(UTC)
多云层高于4000英尺
短暂存在
从 09日的 03点(UTC)到 09日的 15点(UTC)
多云层高于4000英尺
阵雨

TAF: LSGG 080825Z 0809/0915 VRB03KT 9999 FEW040 TX12/0815Z TN05/0906Z TX08/0915Z BECMG 0811/0814 23012KT TEMPO 0817/0821 RA BKN040 TEMPO 0903/0915 SHRA BKN040

超过4000个机场的气象观测和天气预报(METAR&TAF报告)。

可查询的气象台以黄色和红色小点在地图上表示。

将鼠标移到小点上方,可查看气象台名称。

然后点击查看天气观测和预报。

如需切换地图:点击带黑十字的绿色按钮放大地图;点击带横线的绿色按钮缩小地图;或者点击绿色箭头查看邻近地区的地图。


METAR-TAF: